RYR159L LMML-LIRP
Flight info
| Callsign | RYR159L |
|---|---|
| Flight time | 1h 24m |
| Altitude | 38000 |
| Route | GZO M622 SOPIR DCT MABOX DCT ADEXI DCT BETOT DCT POKAV DCT TINTO DCT VELAD/N0371F180 L12 ELB |
| Aircraft | B38M/M-SDE1FGHILORVWXY/HB1 |
Departure
| Time | 2026-04-26 20:11 |
|---|---|
| Airport | Malta International Airport (LMML) |
Arrival
| Time | 2026-04-26 21:35 |
|---|---|
| Airport | Pisa International Airport (LIRP) |
| Time | Latitude | Longitude | Altitude | Speed | Heading |
|---|---|---|---|---|---|
| 2026-04-26 19:46 | 35.85411 | 14.48518 | 262 ft | 0 kts | 1° |
| 2026-04-26 20:03 | 35.85416 | 14.48525 | 262 ft | 4 kts | 41° |
| 2026-04-26 20:04 | 35.85397 | 14.48515 | 262 ft | 4 kts | 8° |
| 2026-04-26 20:04 | 35.85370 | 14.48512 | 262 ft | 4 kts | 354° |
| 2026-04-26 20:04 | 35.85350 | 14.48523 | 262 ft | 2 kts | 313° |
| 2026-04-26 20:04 | 35.85346 | 14.48527 | 262 ft | 0 kts | 313° |
| 2026-04-26 20:07 | 35.85369 | 14.48497 | 262 ft | 14 kts | 313° |
| 2026-04-26 20:08 | 35.85481 | 14.48358 | 263 ft | 28 kts | 313° |
| 2026-04-26 20:08 | 35.85611 | 14.48220 | 264 ft | 28 kts | 337° |
| 2026-04-26 20:08 | 35.85668 | 14.48146 | 264 ft | 9 kts | 271° |
| 2026-04-26 20:08 | 35.85660 | 14.48066 | 265 ft | 12 kts | 264° |
| 2026-04-26 20:09 | 35.85673 | 14.47986 | 266 ft | 4 kts | 279° |
| 2026-04-26 20:09 | 35.85659 | 14.47942 | 266 ft | 11 kts | 244° |
| 2026-04-26 20:09 | 35.85634 | 14.47906 | 266 ft | 3 kts | 211° |
| 2026-04-26 20:09 | 35.85624 | 14.47904 | 266 ft | 0 kts | 163° |
| 2026-04-26 20:10 | 35.85617 | 14.47914 | 266 ft | 7 kts | 134° |
| 2026-04-26 20:10 | 35.85495 | 14.48069 | 264 ft | 57 kts | 134° |
| 2026-04-26 20:10 | 35.85016 | 14.48660 | 261 ft | 135 kts | 135° |
| 2026-04-26 20:10 | 35.84243 | 14.49649 | 606 ft | 174 kts | 136° |
| 2026-04-26 20:11 | 35.83368 | 14.50722 | 1579 ft | 177 kts | 135° |
| 2026-04-26 20:11 | 35.82395 | 14.51702 | 2442 ft | 191 kts | 154° |
| 2026-04-26 20:11 | 35.81056 | 14.51829 | 3200 ft | 208 kts | 199° |
| 2026-04-26 20:12 | 35.79305 | 14.48819 | 4787 ft | 244 kts | 248° |
| 2026-04-26 20:12 | 35.78484 | 14.46932 | 5593 ft | 262 kts | 239° |
| 2026-04-26 20:12 | 35.77505 | 14.44941 | 6447 ft | 277 kts | 239° |
| 2026-04-26 20:12 | 35.76497 | 14.42893 | 7645 ft | 275 kts | 240° |
| 2026-04-26 20:13 | 35.75553 | 14.40873 | 8751 ft | 278 kts | 247° |
| 2026-04-26 20:13 | 35.75156 | 14.38562 | 9838 ft | 278 kts | 272° |
| 2026-04-26 20:13 | 35.75593 | 14.36240 | 10814 ft | 284 kts | 295° |
| 2026-04-26 20:13 | 35.76785 | 14.34233 | 11579 ft | 299 kts | 317° |
| 2026-04-26 20:14 | 35.78602 | 14.32902 | 12468 ft | 311 kts | 336° |
| 2026-04-26 20:14 | 35.80613 | 14.31903 | 13618 ft | 312 kts | 335° |
| 2026-04-26 20:14 | 35.82640 | 14.30880 | 14643 ft | 317 kts | 335° |
| 2026-04-26 20:14 | 35.84704 | 14.29853 | 15622 ft | 323 kts | 335° |
| 2026-04-26 20:15 | 35.86810 | 14.28815 | 16589 ft | 328 kts | 335° |
| 2026-04-26 20:15 | 35.88953 | 14.27763 | 17543 ft | 334 kts | 335° |
| 2026-04-26 20:15 | 35.91128 | 14.26698 | 18464 ft | 340 kts | 335° |
| 2026-04-26 20:15 | 35.93344 | 14.25615 | 19252 ft | 345 kts | 335° |
| 2026-04-26 20:16 | 35.95560 | 14.24530 | 20079 ft | 348 kts | 335° |
| 2026-04-26 20:16 | 35.97824 | 14.23422 | 20869 ft | 352 kts | 335° |
| 2026-04-26 20:16 | 36.00124 | 14.22296 | 21643 ft | 357 kts | 335° |
| 2026-04-26 20:16 | 36.02443 | 14.21159 | 22427 ft | 361 kts | 335° |
| 2026-04-26 20:17 | 36.04651 | 14.19710 | 23179 ft | 360 kts | 321° |
| 2026-04-26 20:17 | 36.06694 | 14.17882 | 23885 ft | 365 kts | 322° |
| 2026-04-26 20:17 | 36.08779 | 14.16057 | 24518 ft | 368 kts | 321° |
| 2026-04-26 20:17 | 36.10160 | 14.14840 | 24967 ft | 369 kts | 321° |
| 2026-04-26 20:18 | 36.12963 | 14.12362 | 25857 ft | 372 kts | 321° |
| 2026-04-26 20:18 | 36.15073 | 14.10493 | 26485 ft | 374 kts | 321° |
| 2026-04-26 20:18 | 36.17197 | 14.08610 | 27116 ft | 377 kts | 321° |
| 2026-04-26 20:18 | 36.19336 | 14.06713 | 27732 ft | 379 kts | 321° |
| 2026-04-26 20:19 | 36.21489 | 14.04801 | 28344 ft | 382 kts | 321° |
| 2026-04-26 20:19 | 36.23656 | 14.02876 | 28943 ft | 384 kts | 321° |
| 2026-04-26 20:19 | 36.25831 | 14.00941 | 29526 ft | 387 kts | 320° |
| 2026-04-26 20:19 | 36.28030 | 13.98985 | 30103 ft | 389 kts | 320° |
| 2026-04-26 20:20 | 36.30238 | 13.97019 | 30593 ft | 392 kts | 320° |
| 2026-04-26 20:20 | 36.32435 | 13.95060 | 31064 ft | 394 kts | 320° |
| 2026-04-26 20:20 | 36.34668 | 13.93069 | 31549 ft | 396 kts | 320° |
| 2026-04-26 20:20 | 36.36912 | 13.91067 | 32006 ft | 399 kts | 320° |
| 2026-04-26 20:21 | 36.39175 | 13.89046 | 32459 ft | 401 kts | 319° |
| 2026-04-26 20:21 | 36.41448 | 13.87015 | 32907 ft | 404 kts | 319° |
| 2026-04-26 20:21 | 36.43739 | 13.84966 | 33350 ft | 406 kts | 319° |
| 2026-04-26 20:21 | 36.46038 | 13.82909 | 33792 ft | 409 kts | 319° |
| 2026-04-26 20:22 | 36.48352 | 13.80837 | 34235 ft | 411 kts | 319° |
| 2026-04-26 20:22 | 36.50675 | 13.78757 | 34692 ft | 411 kts | 319° |
| 2026-04-26 20:22 | 36.52993 | 13.76679 | 35198 ft | 410 kts | 319° |
| 2026-04-26 20:22 | 36.55308 | 13.74602 | 35673 ft | 409 kts | 319° |
| 2026-04-26 20:23 | 36.57613 | 13.72531 | 36115 ft | 409 kts | 319° |
| 2026-04-26 20:23 | 36.59923 | 13.70456 | 36570 ft | 409 kts | 319° |
| 2026-04-26 20:23 | 36.62235 | 13.68376 | 36998 ft | 409 kts | 320° |
| 2026-04-26 20:23 | 36.64535 | 13.66306 | 37434 ft | 409 kts | 320° |
| 2026-04-26 20:24 | 36.66813 | 13.64254 | 37855 ft | 408 kts | 320° |
| 2026-04-26 20:24 | 36.69113 | 13.62180 | 38182 ft | 409 kts | 320° |
| 2026-04-26 20:24 | 36.71416 | 13.60103 | 38169 ft | 407 kts | 320° |
| 2026-04-26 20:25 | 36.76002 | 13.55961 | 38166 ft | 407 kts | 320° |
| 2026-04-26 20:25 | 36.80582 | 13.51818 | 38168 ft | 407 kts | 320° |
| 2026-04-26 20:26 | 36.85186 | 13.47647 | 38167 ft | 408 kts | 320° |
| 2026-04-26 20:26 | 36.89783 | 13.43477 | 38166 ft | 408 kts | 320° |
| 2026-04-26 20:27 | 36.94372 | 13.39307 | 38164 ft | 408 kts | 320° |
| 2026-04-26 20:27 | 36.98941 | 13.35149 | 38163 ft | 409 kts | 320° |
| 2026-04-26 20:28 | 37.03545 | 13.30954 | 38162 ft | 409 kts | 320° |
| 2026-04-26 20:28 | 37.08144 | 13.26755 | 38166 ft | 409 kts | 320° |
| 2026-04-26 20:29 | 37.12745 | 13.22551 | 38163 ft | 409 kts | 320° |
| 2026-04-26 20:29 | 37.17344 | 13.18340 | 38164 ft | 410 kts | 320° |
| 2026-04-26 20:30 | 37.21953 | 13.14114 | 38167 ft | 410 kts | 320° |
| 2026-04-26 20:30 | 37.25792 | 13.10590 | 38163 ft | 411 kts | 320° |
| 2026-04-26 20:31 | 37.30403 | 13.06351 | 38162 ft | 411 kts | 319° |
| 2026-04-26 20:31 | 37.35182 | 13.02370 | 38148 ft | 418 kts | 333° |
| 2026-04-26 20:32 | 37.41586 | 12.99478 | 38166 ft | 422 kts | 335° |
| 2026-04-26 20:32 | 37.46233 | 12.97407 | 38165 ft | 422 kts | 335° |
| 2026-04-26 20:33 | 37.51749 | 12.94975 | 38163 ft | 423 kts | 335° |
| 2026-04-26 20:33 | 37.57317 | 12.92521 | 38165 ft | 423 kts | 335° |
| 2026-04-26 20:34 | 37.62837 | 12.90085 | 38162 ft | 423 kts | 335° |
| 2026-04-26 20:34 | 37.68403 | 12.87624 | 38164 ft | 423 kts | 335° |
| 2026-04-26 20:35 | 37.73966 | 12.85161 | 38156 ft | 424 kts | 335° |
| 2026-04-26 20:35 | 37.79534 | 12.82691 | 38150 ft | 425 kts | 335° |
| 2026-04-26 20:36 | 37.85121 | 12.80209 | 38149 ft | 425 kts | 336° |
| 2026-04-26 20:36 | 37.90701 | 12.77726 | 38134 ft | 426 kts | 336° |
| 2026-04-26 20:37 | 37.96295 | 12.75233 | 38137 ft | 426 kts | 336° |
| 2026-04-26 20:37 | 38.01892 | 12.72735 | 38133 ft | 427 kts | 336° |
| 2026-04-26 20:38 | 38.07499 | 12.70228 | 38143 ft | 428 kts | 336° |
| 2026-04-26 20:38 | 38.13127 | 12.67708 | 38165 ft | 429 kts | 336° |
| 2026-04-26 20:39 | 38.18769 | 12.65177 | 38154 ft | 430 kts | 336° |
| 2026-04-26 20:39 | 38.24384 | 12.62654 | 38158 ft | 431 kts | 336° |
| 2026-04-26 20:40 | 38.30065 | 12.60097 | 38162 ft | 431 kts | 336° |
| 2026-04-26 20:40 | 38.35705 | 12.57554 | 38165 ft | 432 kts | 336° |
| 2026-04-26 20:41 | 38.41385 | 12.54990 | 38163 ft | 433 kts | 336° |
| 2026-04-26 20:41 | 38.47063 | 12.52421 | 38162 ft | 434 kts | 336° |
| 2026-04-26 20:42 | 38.52756 | 12.49842 | 38166 ft | 435 kts | 337° |
| 2026-04-26 20:42 | 38.58461 | 12.47254 | 38175 ft | 435 kts | 337° |
| 2026-04-26 20:43 | 38.64170 | 12.44658 | 38166 ft | 436 kts | 337° |
| 2026-04-26 20:43 | 38.69884 | 12.42056 | 38168 ft | 436 kts | 337° |
| 2026-04-26 20:44 | 38.75568 | 12.39463 | 38168 ft | 437 kts | 337° |
| 2026-04-26 20:44 | 38.81296 | 12.36846 | 38175 ft | 437 kts | 337° |
| 2026-04-26 20:45 | 38.87025 | 12.34223 | 38169 ft | 437 kts | 337° |
| 2026-04-26 20:45 | 38.92749 | 12.31599 | 38176 ft | 437 kts | 337° |
| 2026-04-26 20:46 | 38.98479 | 12.28968 | 38170 ft | 437 kts | 338° |
| 2026-04-26 20:46 | 39.04215 | 12.26329 | 38174 ft | 437 kts | 338° |
| 2026-04-26 20:47 | 39.09944 | 12.23689 | 38172 ft | 438 kts | 337° |
| 2026-04-26 20:47 | 39.15685 | 12.21039 | 38175 ft | 438 kts | 338° |
| 2026-04-26 20:48 | 39.21429 | 12.18382 | 38178 ft | 438 kts | 338° |
| 2026-04-26 20:48 | 39.27181 | 12.15717 | 38176 ft | 439 kts | 338° |
| 2026-04-26 20:49 | 39.32890 | 12.13067 | 38177 ft | 439 kts | 338° |
| 2026-04-26 20:49 | 39.38649 | 12.10390 | 38178 ft | 440 kts | 338° |
| 2026-04-26 20:50 | 39.44409 | 12.07708 | 38178 ft | 440 kts | 338° |
| 2026-04-26 20:50 | 39.50174 | 12.05019 | 38175 ft | 440 kts | 338° |
| 2026-04-26 20:51 | 39.55935 | 12.02326 | 38178 ft | 441 kts | 338° |
| 2026-04-26 20:51 | 39.61712 | 11.99621 | 38178 ft | 441 kts | 338° |
| 2026-04-26 20:52 | 39.67476 | 11.96918 | 38176 ft | 441 kts | 338° |
| 2026-04-26 20:52 | 39.73250 | 11.94205 | 38180 ft | 441 kts | 338° |
| 2026-04-26 20:53 | 39.79016 | 11.91491 | 38177 ft | 441 kts | 338° |
| 2026-04-26 20:53 | 39.84792 | 11.88768 | 38177 ft | 441 kts | 338° |
| 2026-04-26 20:54 | 39.90564 | 11.86041 | 38174 ft | 441 kts | 338° |
| 2026-04-26 20:54 | 39.96333 | 11.83312 | 38175 ft | 441 kts | 338° |
| 2026-04-26 20:55 | 40.02101 | 11.80577 | 38174 ft | 440 kts | 338° |
| 2026-04-26 20:55 | 40.07827 | 11.77858 | 38177 ft | 440 kts | 338° |
| 2026-04-26 20:56 | 40.13583 | 11.75120 | 38178 ft | 440 kts | 338° |
| 2026-04-26 20:56 | 40.19347 | 11.72373 | 38176 ft | 440 kts | 338° |
| 2026-04-26 20:57 | 40.25104 | 11.69625 | 38179 ft | 440 kts | 338° |
| 2026-04-26 20:57 | 40.30849 | 11.66878 | 38175 ft | 439 kts | 338° |
| 2026-04-26 20:58 | 40.36564 | 11.64141 | 38180 ft | 439 kts | 338° |
| 2026-04-26 20:58 | 40.42263 | 11.61266 | 38179 ft | 439 kts | 336° |
| 2026-04-26 20:59 | 40.47960 | 11.58370 | 38184 ft | 438 kts | 336° |
| 2026-04-26 20:59 | 40.53653 | 11.55476 | 38186 ft | 438 kts | 336° |
| 2026-04-26 21:00 | 40.59340 | 11.52580 | 38171 ft | 438 kts | 336° |
| 2026-04-26 21:00 | 40.65014 | 11.49685 | 38170 ft | 438 kts | 336° |
| 2026-04-26 21:01 | 40.70653 | 11.46803 | 38175 ft | 437 kts | 336° |
| 2026-04-26 21:01 | 40.76347 | 11.43886 | 38178 ft | 437 kts | 336° |
| 2026-04-26 21:02 | 40.82023 | 11.40976 | 38172 ft | 437 kts | 336° |
| 2026-04-26 21:02 | 40.87682 | 11.38062 | 38178 ft | 437 kts | 336° |
| 2026-04-26 21:03 | 40.93344 | 11.35142 | 38180 ft | 437 kts | 336° |
| 2026-04-26 21:03 | 40.98964 | 11.32239 | 38174 ft | 436 kts | 336° |
| 2026-04-26 21:04 | 41.04655 | 11.29293 | 38171 ft | 436 kts | 336° |
| 2026-04-26 21:04 | 41.10269 | 11.26382 | 38170 ft | 436 kts | 336° |
| 2026-04-26 21:05 | 41.15920 | 11.23446 | 38174 ft | 436 kts | 336° |
| 2026-04-26 21:05 | 41.21561 | 11.20510 | 38173 ft | 436 kts | 336° |
| 2026-04-26 21:06 | 41.27207 | 11.17566 | 38172 ft | 435 kts | 336° |
| 2026-04-26 21:06 | 41.32853 | 11.14616 | 38172 ft | 435 kts | 336° |
| 2026-04-26 21:07 | 41.38483 | 11.11670 | 38174 ft | 435 kts | 336° |
| 2026-04-26 21:07 | 41.44116 | 11.08716 | 38170 ft | 434 kts | 336° |
| 2026-04-26 21:08 | 41.49704 | 11.05781 | 38171 ft | 434 kts | 336° |
| 2026-04-26 21:08 | 41.55317 | 11.02829 | 38173 ft | 434 kts | 336° |
| 2026-04-26 21:09 | 41.60929 | 10.99871 | 38172 ft | 433 kts | 336° |
| 2026-04-26 21:09 | 41.66534 | 10.96911 | 38168 ft | 433 kts | 336° |
| 2026-04-26 21:10 | 41.72147 | 10.93942 | 38172 ft | 433 kts | 336° |
| 2026-04-26 21:10 | 41.77748 | 10.90975 | 37333 ft | 434 kts | 336° |
| 2026-04-26 21:10 | 41.80557 | 10.89484 | 36653 ft | 432 kts | 336° |
| 2026-04-26 21:11 | 41.83343 | 10.88004 | 36139 ft | 427 kts | 336° |
| 2026-04-26 21:11 | 41.86101 | 10.86537 | 35607 ft | 423 kts | 336° |
| 2026-04-26 21:11 | 41.88826 | 10.85087 | 35062 ft | 420 kts | 336° |
| 2026-04-26 21:11 | 41.91525 | 10.83649 | 34517 ft | 417 kts | 337° |
| 2026-04-26 21:12 | 41.94216 | 10.82214 | 33951 ft | 414 kts | 337° |
| 2026-04-26 21:12 | 41.96888 | 10.80789 | 33363 ft | 411 kts | 337° |
| 2026-04-26 21:12 | 41.99526 | 10.79379 | 32817 ft | 406 kts | 337° |
| 2026-04-26 21:12 | 42.02144 | 10.77980 | 32308 ft | 402 kts | 337° |
| 2026-04-26 21:13 | 42.04729 | 10.76597 | 31782 ft | 398 kts | 337° |
| 2026-04-26 21:13 | 42.07299 | 10.75220 | 31195 ft | 397 kts | 338° |
| 2026-04-26 21:13 | 42.09818 | 10.73869 | 30708 ft | 393 kts | 338° |
| 2026-04-26 21:13 | 42.12353 | 10.72508 | 30255 ft | 389 kts | 338° |
| 2026-04-26 21:14 | 42.14863 | 10.71160 | 29683 ft | 387 kts | 338° |
| 2026-04-26 21:14 | 42.17368 | 10.69813 | 29152 ft | 388 kts | 338° |
| 2026-04-26 21:14 | 42.19873 | 10.68466 | 28658 ft | 387 kts | 338° |
| 2026-04-26 21:14 | 42.22377 | 10.67117 | 28170 ft | 385 kts | 338° |
| 2026-04-26 21:15 | 42.24850 | 10.65784 | 27679 ft | 382 kts | 337° |
| 2026-04-26 21:15 | 42.26489 | 10.64901 | 27345 ft | 381 kts | 337° |
| 2026-04-26 21:15 | 42.29742 | 10.63144 | 26711 ft | 377 kts | 337° |
| 2026-04-26 21:15 | 42.32172 | 10.61832 | 26230 ft | 375 kts | 337° |
| 2026-04-26 21:16 | 42.34621 | 10.60508 | 25745 ft | 373 kts | 337° |
| 2026-04-26 21:16 | 42.36989 | 10.59227 | 25269 ft | 370 kts | 337° |
| 2026-04-26 21:16 | 42.39366 | 10.57939 | 24811 ft | 367 kts | 337° |
| 2026-04-26 21:16 | 42.41737 | 10.56654 | 24344 ft | 365 kts | 336° |
| 2026-04-26 21:17 | 42.44088 | 10.55379 | 23881 ft | 362 kts | 336° |
| 2026-04-26 21:17 | 42.45630 | 10.54542 | 23536 ft | 361 kts | 336° |
| 2026-04-26 21:17 | 42.47962 | 10.53275 | 23026 ft | 358 kts | 336° |
| 2026-04-26 21:17 | 42.50260 | 10.52026 | 22561 ft | 355 kts | 337° |
| 2026-04-26 21:18 | 42.52541 | 10.50785 | 22108 ft | 350 kts | 336° |
| 2026-04-26 21:18 | 42.54790 | 10.49561 | 21668 ft | 346 kts | 336° |
| 2026-04-26 21:18 | 42.57013 | 10.48350 | 21229 ft | 343 kts | 337° |
| 2026-04-26 21:18 | 42.59225 | 10.47143 | 20799 ft | 342 kts | 337° |
| 2026-04-26 21:19 | 42.61439 | 10.45935 | 20360 ft | 343 kts | 337° |
| 2026-04-26 21:19 | 42.63627 | 10.44740 | 19925 ft | 343 kts | 337° |
| 2026-04-26 21:19 | 42.65841 | 10.43530 | 19492 ft | 343 kts | 337° |
| 2026-04-26 21:19 | 42.68052 | 10.42321 | 19055 ft | 342 kts | 337° |
| 2026-04-26 21:20 | 42.70258 | 10.41114 | 18617 ft | 340 kts | 337° |
| 2026-04-26 21:20 | 42.72454 | 10.39929 | 18194 ft | 336 kts | 340° |
| 2026-04-26 21:20 | 42.74726 | 10.39365 | 17834 ft | 330 kts | 354° |
| 2026-04-26 21:20 | 42.77006 | 10.39057 | 17538 ft | 328 kts | 353° |
| 2026-04-26 21:21 | 42.79286 | 10.38735 | 17226 ft | 330 kts | 353° |
| 2026-04-26 21:21 | 42.81571 | 10.38418 | 16914 ft | 327 kts | 353° |
| 2026-04-26 21:21 | 42.83821 | 10.38108 | 16796 ft | 326 kts | 353° |
| 2026-04-26 21:21 | 42.86096 | 10.37719 | 16008 ft | 339 kts | 351° |
| 2026-04-26 21:22 | 42.88482 | 10.37269 | 15193 ft | 349 kts | 352° |
| 2026-04-26 21:22 | 42.90907 | 10.36822 | 14417 ft | 354 kts | 352° |
| 2026-04-26 21:22 | 42.93362 | 10.36372 | 13609 ft | 358 kts | 352° |
| 2026-04-26 21:23 | 42.98260 | 10.35476 | 12366 ft | 352 kts | 353° |
| 2026-04-26 21:23 | 43.00668 | 10.35036 | 11913 ft | 345 kts | 353° |
| 2026-04-26 21:23 | 43.03025 | 10.34604 | 11456 ft | 338 kts | 353° |
| 2026-04-26 21:23 | 43.05337 | 10.34180 | 10994 ft | 333 kts | 352° |
| 2026-04-26 21:24 | 43.07619 | 10.33763 | 10534 ft | 328 kts | 352° |
| 2026-04-26 21:24 | 43.09804 | 10.33362 | 10341 ft | 303 kts | 352° |
| 2026-04-26 21:24 | 43.11819 | 10.32993 | 10185 ft | 280 kts | 352° |
| 2026-04-26 21:24 | 43.13695 | 10.32649 | 9918 ft | 267 kts | 352° |
| 2026-04-26 21:25 | 43.15559 | 10.32306 | 9477 ft | 275 kts | 352° |
| 2026-04-26 21:25 | 43.17470 | 10.31955 | 9052 ft | 278 kts | 352° |
| 2026-04-26 21:25 | 43.19366 | 10.31606 | 8676 ft | 278 kts | 352° |
| 2026-04-26 21:25 | 43.21283 | 10.31254 | 8295 ft | 276 kts | 352° |
| 2026-04-26 21:26 | 43.23185 | 10.30903 | 7930 ft | 274 kts | 352° |
| 2026-04-26 21:26 | 43.25066 | 10.30557 | 7566 ft | 272 kts | 352° |
| 2026-04-26 21:26 | 43.26939 | 10.30212 | 7204 ft | 271 kts | 352° |
| 2026-04-26 21:26 | 43.28802 | 10.29868 | 6839 ft | 269 kts | 352° |
| 2026-04-26 21:27 | 43.30653 | 10.29526 | 6470 ft | 268 kts | 352° |
| 2026-04-26 21:27 | 43.32493 | 10.29186 | 6093 ft | 267 kts | 352° |
| 2026-04-26 21:27 | 43.34328 | 10.28847 | 5725 ft | 265 kts | 352° |
| 2026-04-26 21:27 | 43.36076 | 10.28524 | 5380 ft | 264 kts | 352° |
| 2026-04-26 21:28 | 43.37959 | 10.28176 | 5013 ft | 262 kts | 352° |
| 2026-04-26 21:28 | 43.39767 | 10.27841 | 4646 ft | 261 kts | 352° |
| 2026-04-26 21:28 | 43.41544 | 10.27511 | 4434 ft | 253 kts | 352° |
| 2026-04-26 21:28 | 43.43231 | 10.27199 | 4284 ft | 243 kts | 351° |
| 2026-04-26 21:29 | 43.44872 | 10.26894 | 4151 ft | 234 kts | 351° |
| 2026-04-26 21:29 | 43.46461 | 10.26599 | 4001 ft | 226 kts | 351° |
| 2026-04-26 21:29 | 43.48002 | 10.26314 | 3897 ft | 236 kts | 351° |
| 2026-04-26 21:29 | 43.49760 | 10.25986 | 3671 ft | 258 kts | 351° |
| 2026-04-26 21:30 | 43.51502 | 10.25663 | 3520 ft | 247 kts | 351° |
| 2026-04-26 21:30 | 43.53176 | 10.25371 | 3360 ft | 236 kts | 355° |
| 2026-04-26 21:30 | 43.54772 | 10.25716 | 3079 ft | 231 kts | 19° |
| 2026-04-26 21:30 | 43.56149 | 10.26745 | 2770 ft | 215 kts | 35° |
| 2026-04-26 21:31 | 43.57248 | 10.27933 | 2601 ft | 182 kts | 37° |
| 2026-04-26 21:31 | 43.58140 | 10.28885 | 2543 ft | 147 kts | 36° |
| 2026-04-26 21:31 | 43.58932 | 10.29700 | 2187 ft | 144 kts | 35° |
| 2026-04-26 21:31 | 43.59712 | 10.30505 | 1879 ft | 137 kts | 36° |
| 2026-04-26 21:32 | 43.60465 | 10.31305 | 1548 ft | 132 kts | 36° |
| 2026-04-26 21:32 | 43.61211 | 10.32091 | 1432 ft | 135 kts | 35° |
| 2026-04-26 21:32 | 43.61996 | 10.32862 | 1352 ft | 139 kts | 33° |
| 2026-04-26 21:32 | 43.62760 | 10.33635 | 1207 ft | 136 kts | 36° |
| 2026-04-26 21:33 | 43.63526 | 10.34414 | 1064 ft | 137 kts | 34° |
| 2026-04-26 21:33 | 43.64285 | 10.35195 | 869 ft | 135 kts | 37° |
| 2026-04-26 21:33 | 43.65033 | 10.35979 | 682 ft | 134 kts | 35° |
| 2026-04-26 21:33 | 43.65774 | 10.36730 | 465 ft | 132 kts | 37° |
| 2026-04-26 21:34 | 43.66522 | 10.37503 | 270 ft | 134 kts | 37° |
| 2026-04-26 21:34 | 43.67257 | 10.38265 | 88 ft | 130 kts | 37° |
| 2026-04-26 21:34 | 43.67952 | 10.38995 | 22 ft | 114 kts | 37° |
| 2026-04-26 21:34 | 43.68378 | 10.39430 | 22 ft | 56 kts | 36° |
| 2026-04-26 21:35 | 43.68662 | 10.39716 | 21 ft | 16 kts | 38° |
| 2026-04-26 21:35 | 43.68746 | 10.39783 | 20 ft | 15 kts | 1° |
| 2026-04-26 21:35 | 43.68812 | 10.39702 | 18 ft | 15 kts | 306° |
| 2026-04-26 21:35 | 43.68877 | 10.39574 | 21 ft | 17 kts | 295° |
| 2026-04-26 21:36 | 43.68926 | 10.39401 | 18 ft | 23 kts | 290° |
| 2026-04-26 21:36 | 43.68942 | 10.39271 | 18 ft | 7 kts | 246° |
| 2026-04-26 21:36 | 43.68929 | 10.39228 | 18 ft | 10 kts | 247° |
| 2026-04-26 21:37 | 43.68930 | 10.39177 | 18 ft | 2 kts | 312° |
| 2026-04-26 21:37 | 43.68933 | 10.39177 | 18 ft | 0 kts | 353° |
| 2026-04-26 21:37 | 43.68943 | 10.39187 | 20 ft | 1 kts | 56° |
| 2026-04-26 21:38 | 43.68950 | 10.39209 | 18 ft | 5 kts | 68° |
| 2026-04-26 21:38 | 43.68960 | 10.39263 | 18 ft | 4 kts | 97° |
| 2026-04-26 21:38 | 43.68949 | 10.39326 | 19 ft | 12 kts | 108° |
| 2026-04-26 21:38 | 43.68904 | 10.39473 | 20 ft | 20 kts | 112° |
| 2026-04-26 21:39 | 43.68910 | 10.39647 | 20 ft | 19 kts | 42° |
| 2026-04-26 21:39 | 43.69018 | 10.39761 | 22 ft | 21 kts | 36° |
| 2026-04-26 21:39 | 43.69149 | 10.39892 | 25 ft | 25 kts | 33° |
| 2026-04-26 21:39 | 43.69317 | 10.39902 | 21 ft | 28 kts | 353° |
| 2026-04-26 21:40 | 43.69458 | 10.39900 | 18 ft | 16 kts | 9° |
| 2026-04-26 21:40 | 43.69583 | 10.39928 | 18 ft | 21 kts | 10° |
| 2026-04-26 21:40 | 43.69678 | 10.39933 | 18 ft | 10 kts | 323° |
| 2026-04-26 21:40 | 43.69720 | 10.39907 | 18 ft | 3 kts | 359° |
| 2026-04-26 21:41 | 43.69747 | 10.39911 | 18 ft | 0 kts | 8° |
| 2026-04-26 21:41 | 43.69760 | 10.39913 | 18 ft | 0 kts | 8° |